createdAt,value
2023-03-06T00:01:19.811Z,100.00
2023-03-06T00:03:49.460Z,100.00
2023-03-06T00:06:17.778Z,100.00
2023-03-06T00:08:46.246Z,100.00
2023-03-06T00:11:15.609Z,100.00
2023-03-06T00:13:43.860Z,100.00
2023-03-06T00:16:12.340Z,100.00
2023-03-06T00:18:40.625Z,100.00
2023-03-06T00:21:10.860Z,100.00
2023-03-06T00:23:39.358Z,100.00
2023-03-06T00:26:08.556Z,100.00
2023-03-06T00:28:37.718Z,100.00
2023-03-06T00:31:06.474Z,100.00
2023-03-06T00:33:36.136Z,100.00
2023-03-06T00:36:06.213Z,100.00
2023-03-06T00:38:37.363Z,100.00
2023-03-06T00:41:10.354Z,100.00
2023-03-06T00:43:38.715Z,100.00
2023-03-06T00:46:09.580Z,100.00
2023-03-06T00:48:37.874Z,100.00
2023-03-06T00:51:07.140Z,100.00
2023-03-06T00:53:36.945Z,100.00
2023-03-06T00:56:05.604Z,100.00
2023-03-06T00:58:33.857Z,100.00
2023-03-06T01:01:02.204Z,100.00
2023-03-06T01:03:30.514Z,100.00
2023-03-06T01:05:59.270Z,100.00
2023-03-06T01:08:28.136Z,100.00
2023-03-06T01:10:59.403Z,100.00
2023-03-06T01:13:27.768Z,100.00
2023-03-06T01:15:58.376Z,100.00
2023-03-06T01:18:26.620Z,100.00
2023-03-06T01:20:54.879Z,100.00
2023-03-06T01:23:23.138Z,100.00
2023-03-06T01:25:51.397Z,100.00
2023-03-06T01:28:23.064Z,100.00
2023-03-06T01:30:51.410Z,100.00
2023-03-06T01:33:20.068Z,100.00
2023-03-06T01:35:48.523Z,100.00
2023-03-06T01:38:16.960Z,100.00
2023-03-06T01:40:45.262Z,100.00
2023-03-06T01:43:28.666Z,100.00
2023-03-06T01:46:30.930Z,100.00
2023-03-06T01:49:01.582Z,100.00
2023-03-06T01:51:32.767Z,100.00
2023-03-06T01:54:03.744Z,100.00
2023-03-06T01:56:32.140Z,100.00
2023-03-06T01:59:01.946Z,100.00
2023-03-06T02:01:31.208Z,100.00
2023-03-06T02:04:01.075Z,100.00
2023-03-06T02:06:30.852Z,100.00
2023-03-06T02:08:59.126Z,100.00
2023-03-06T02:11:27.514Z,100.00
2023-03-06T02:13:56.082Z,100.00
2023-03-06T02:16:28.262Z,100.00
2023-03-06T02:18:56.817Z,100.00
2023-03-06T02:21:27.323Z,100.00
2023-03-06T02:24:08.823Z,100.00
2023-03-06T02:26:39.331Z,100.00
2023-03-06T02:29:09.079Z,100.00
2023-03-06T02:31:37.465Z,100.00
2023-03-06T02:34:09.418Z,100.00
2023-03-06T02:36:40.087Z,100.00
2023-03-06T02:39:09.476Z,100.00
2023-03-06T02:41:40.349Z,100.00
2023-03-06T02:44:09.914Z,100.00
2023-03-06T02:46:38.300Z,100.00
2023-03-06T02:49:06.583Z,100.00
2023-03-06T02:51:34.938Z,100.00
2023-03-06T02:54:03.398Z,100.00
2023-03-06T02:56:31.792Z,100.00
2023-03-06T02:59:01.525Z,100.00
2023-03-06T03:01:30.815Z,100.00
2023-03-06T03:03:59.125Z,100.00
2023-03-06T03:06:27.489Z,100.00
2023-03-06T03:08:55.949Z,100.00
2023-03-06T03:11:24.635Z,100.00
2023-03-06T03:13:53.318Z,100.00
2023-03-06T03:16:26.456Z,100.00
2023-03-06T03:18:58.045Z,100.00
2023-03-06T03:21:27.703Z,100.00
2023-03-06T03:23:57.084Z,100.00
2023-03-06T03:26:29.446Z,100.00
2023-03-06T03:29:12.053Z,100.00
2023-03-06T03:31:41.777Z,100.00
2023-03-06T03:34:10.378Z,100.00
2023-03-06T03:36:41.167Z,100.00
2023-03-06T03:39:11.411Z,100.00
2023-03-06T03:41:39.866Z,100.00
2023-03-06T03:44:09.866Z,100.00
2023-03-06T03:46:38.431Z,100.00
2023-03-06T03:49:13.211Z,100.00
2023-03-06T03:51:41.598Z,100.00
2023-03-06T03:54:10.354Z,100.00
2023-03-06T03:56:44.576Z,100.00
2023-03-06T03:59:23.006Z,100.00
2023-03-06T04:02:14.927Z,100.00
2023-03-06T04:04:56.282Z,100.00
2023-03-06T04:07:24.851Z,100.00
2023-03-06T04:09:53.213Z,100.00
2023-03-06T04:12:21.903Z,100.00
2023-03-06T04:14:50.224Z,100.00
2023-03-06T04:17:19.237Z,100.00
2023-03-06T04:19:47.547Z,100.00
2023-03-06T04:22:17.372Z,100.00
2023-03-06T04:24:48.955Z,100.00
2023-03-06T04:27:18.684Z,100.00
2023-03-06T04:29:47.259Z,100.00
2023-03-06T04:32:16.078Z,100.00
2023-03-06T04:34:44.349Z,100.00
2023-03-06T04:37:15.456Z,100.00
2023-03-06T04:39:45.196Z,100.00
2023-03-06T04:42:13.662Z,100.00
2023-03-06T04:44:42.110Z,100.00
2023-03-06T04:47:10.550Z,100.00
2023-03-06T04:49:40.058Z,100.00
2023-03-06T04:52:09.014Z,100.00
2023-03-06T04:54:37.495Z,100.00
2023-03-06T04:57:07.278Z,100.00
2023-03-06T04:59:38.098Z,100.00
2023-03-06T05:02:07.874Z,100.00
2023-03-06T05:04:36.136Z,100.00
2023-03-06T05:07:04.491Z,100.00
2023-03-06T05:09:32.807Z,100.00
2023-03-06T05:12:01.080Z,100.00
2023-03-06T05:14:32.365Z,100.00
2023-03-06T05:17:00.723Z,100.00
2023-03-06T05:19:28.991Z,100.00
2023-03-06T05:21:57.339Z,100.00
2023-03-06T05:24:25.738Z,100.00
2023-03-06T05:26:54.044Z,100.00
2023-03-06T05:29:22.574Z,100.00
2023-03-06T05:31:52.298Z,100.00
2023-03-06T05:34:20.733Z,100.00
2023-03-06T05:36:49.020Z,100.00
2023-03-06T05:39:17.404Z,100.00
2023-03-06T05:41:45.776Z,100.00
2023-03-06T05:44:14.117Z,100.00
2023-03-06T05:46:42.437Z,100.00
2023-03-06T05:49:12.171Z,100.00
2023-03-06T05:51:40.532Z,100.00
2023-03-06T05:54:09.151Z,100.00
2023-03-06T05:56:37.699Z,100.00
2023-03-06T05:59:09.756Z,100.00
2023-03-06T06:01:38.251Z,100.00
2023-03-06T06:04:06.956Z,100.00
2023-03-06T06:06:36.669Z,100.00
2023-03-06T06:09:05.327Z,100.00
2023-03-06T06:11:33.764Z,100.00
2023-03-06T06:14:02.958Z,100.00
2023-03-06T06:16:31.790Z,100.00
2023-03-06T06:19:03.306Z,100.00
2023-03-06T06:21:31.626Z,100.00
2023-03-06T06:24:01.468Z,100.00
2023-03-06T06:26:29.999Z,100.00
2023-03-06T06:29:00.113Z,100.00
2023-03-06T06:31:29.101Z,100.00
2023-03-06T06:33:57.716Z,100.00
2023-03-06T06:36:26.049Z,100.00
2023-03-06T06:38:56.153Z,100.00
2023-03-06T06:41:46.150Z,100.00
2023-03-06T06:44:17.320Z,100.00
2023-03-06T06:49:37.903Z,100.00
2023-03-06T06:52:07.230Z,100.00
2023-03-06T06:54:36.093Z,100.00
2023-03-06T06:57:06.248Z,100.00
2023-03-06T06:59:34.912Z,100.00
2023-03-06T07:02:03.734Z,100.00
2023-03-06T07:04:32.148Z,100.00
2023-03-06T07:07:07.790Z,100.00
2023-03-06T07:09:37.145Z,100.00
2023-03-06T07:12:07.726Z,100.00
2023-03-06T07:14:38.216Z,100.00
2023-03-06T07:17:06.687Z,100.00
2023-03-06T07:19:35.265Z,100.00
2023-03-06T07:22:04.775Z,100.00
2023-03-06T07:24:33.148Z,100.00
2023-03-06T07:27:01.568Z,100.00
2023-03-06T07:29:33.115Z,100.00
2023-03-06T07:32:01.788Z,100.00
2023-03-06T07:34:30.419Z,100.00
2023-03-06T07:36:58.875Z,100.00
2023-03-06T07:39:28.325Z,100.00
2023-03-06T07:41:56.928Z,100.00
2023-03-06T07:44:32.072Z,100.00
2023-03-06T07:47:05.165Z,100.00
2023-03-06T07:49:34.501Z,100.00
2023-03-06T07:52:06.153Z,100.00
2023-03-06T07:54:38.302Z,100.00
2023-03-06T07:57:09.284Z,100.00
2023-03-06T07:59:39.945Z,100.00
2023-03-06T08:02:14.829Z,100.00
2023-03-06T08:04:43.369Z,100.00
2023-03-06T08:07:13.219Z,100.00
2023-03-06T08:09:41.997Z,100.00
2023-03-06T08:12:10.676Z,100.00
2023-03-06T08:14:38.948Z,100.00
2023-03-06T08:17:07.553Z,100.00
2023-03-06T08:19:37.389Z,100.00
2023-03-06T08:22:06.203Z,100.00
2023-03-06T08:24:35.151Z,100.00
2023-03-06T08:27:03.500Z,100.00
2023-03-06T08:29:32.429Z,97.54
2023-03-06T08:32:00.750Z,95.30
2023-03-06T08:34:29.184Z,95.46
2023-03-06T08:37:01.425Z,94.94
2023-03-06T08:39:29.731Z,93.07
2023-03-06T08:41:58.127Z,96.94
2023-03-06T08:44:26.475Z,95.15
2023-03-06T08:46:54.896Z,99.59
2023-03-06T08:49:23.277Z,97.72
2023-03-06T08:51:51.668Z,90.10
2023-03-06T08:54:21.593Z,86.20
2023-03-06T08:56:50.910Z,85.63
2023-03-06T08:59:19.298Z,85.72
2023-03-06T09:01:49.169Z,86.64
2023-03-06T09:04:17.659Z,85.64
2023-03-06T09:06:46.478Z,82.59
2023-03-06T09:09:15.121Z,81.77
2023-03-06T09:11:44.976Z,84.64
2023-03-06T09:14:13.855Z,85.37
2023-03-06T09:16:42.363Z,83.78
2023-03-06T09:19:11.028Z,82.16
2023-03-06T09:21:39.556Z,82.44
2023-03-06T09:24:08.757Z,82.58
2023-03-06T09:26:45.687Z,83.83
2023-03-06T09:29:17.646Z,81.97
2023-03-06T09:31:46.281Z,79.42
2023-03-06T09:34:14.888Z,80.87
2023-03-06T09:36:56.825Z,82.79
2023-03-06T09:39:27.340Z,82.57
2023-03-06T09:41:57.370Z,85.63
2023-03-06T09:44:29.161Z,83.46
2023-03-06T09:47:37.110Z,81.85
2023-03-06T09:50:13.580Z,78.14
2023-03-06T09:52:47.292Z,76.64
2023-03-06T09:55:19.116Z,78.96
2023-03-06T09:57:55.091Z,79.65
2023-03-06T10:00:29.648Z,80.03
2023-03-06T10:03:05.941Z,78.40
2023-03-06T10:05:37.936Z,75.41
2023-03-06T10:08:12.698Z,72.38
2023-03-06T10:10:45.808Z,70.68
2023-03-06T10:13:20.969Z,70.94
2023-03-06T10:15:56.449Z,72.95
2023-03-06T10:18:27.736Z,71.94
2023-03-06T10:21:13.427Z,69.82
2023-03-06T10:23:53.828Z,69.37
2023-03-06T10:26:25.782Z,68.93
2023-03-06T10:29:01.785Z,69.07
2023-03-06T10:31:33.720Z,69.79
2023-03-06T10:34:15.908Z,70.75
2023-03-06T10:36:44.329Z,68.53
2023-03-06T10:39:17.678Z,68.62
2023-03-06T10:41:46.900Z,68.10
2023-03-06T10:44:25.334Z,71.09
2023-03-06T10:46:56.433Z,68.98
2023-03-06T10:49:29.103Z,70.52
2023-03-06T10:51:59.791Z,68.22
2023-03-06T10:54:29.266Z,66.63
2023-03-06T10:56:58.154Z,64.20
2023-03-06T10:59:28.509Z,63.39
2023-03-06T11:01:59.598Z,65.44
2023-03-06T11:04:30.438Z,64.68
2023-03-06T11:07:14.100Z,64.08
2023-03-06T11:09:44.493Z,63.65
2023-03-06T11:12:28.612Z,64.76
2023-03-06T11:15:11.215Z,63.77
2023-03-06T11:17:51.252Z,63.28
2023-03-06T11:20:21.363Z,66.84
2023-03-06T11:22:54.884Z,66.23
2023-03-06T11:25:25.134Z,64.40
2023-03-06T11:28:00.630Z,64.79
2023-03-06T11:30:35.022Z,65.85
2023-03-06T11:33:10.291Z,64.05
2023-03-06T11:35:51.476Z,64.93
2023-03-06T11:38:24.556Z,66.03
2023-03-06T11:40:55.775Z,66.58
2023-03-06T11:43:29.280Z,64.98
2023-03-06T11:46:02.826Z,66.28
2023-03-06T11:48:38.964Z,64.88
2023-03-06T11:51:13.853Z,67.35
2023-03-06T11:53:43.113Z,70.33
2023-03-06T11:56:27.769Z,68.23
2023-03-06T12:03:58.157Z,66.72
2023-03-06T12:06:35.552Z,66.05
2023-03-06T12:09:19.296Z,68.17
2023-03-06T12:11:52.024Z,66.92
2023-03-06T12:14:32.283Z,67.81
2023-03-06T12:20:25.088Z,66.65
2023-03-06T12:23:02.392Z,66.35
2023-03-06T12:25:37.506Z,67.27
2023-03-06T12:28:20.288Z,67.17
2023-03-06T12:31:03.108Z,69.18
2023-03-06T12:33:40.934Z,67.30
2023-03-06T12:36:31.528Z,65.13
2023-03-06T12:39:11.762Z,66.71
2023-03-06T12:41:51.664Z,67.37
2023-03-06T12:44:42.427Z,70.70
2023-03-06T12:47:12.485Z,70.84
2023-03-06T12:49:43.660Z,73.36
2023-03-06T12:52:29.701Z,75.85
2023-03-06T12:54:58.883Z,74.01
2023-03-06T12:57:27.490Z,73.83
2023-03-06T12:59:56.453Z,72.71
2023-03-06T13:02:50.282Z,72.44
2023-03-06T13:05:40.847Z,71.02
2023-03-06T13:08:24.862Z,72.44
2023-03-06T13:11:12.666Z,72.49
2023-03-06T13:13:44.421Z,73.91
2023-03-06T13:16:15.272Z,74.60
2023-03-06T13:18:54.469Z,72.04
2023-03-06T13:21:48.338Z,72.12
2023-03-06T13:24:23.438Z,71.05
2023-03-06T13:27:00.223Z,70.70
2023-03-06T13:30:05.227Z,70.33
2023-03-06T13:32:35.787Z,73.35
2023-03-06T13:35:48.968Z,72.98
2023-03-06T13:38:56.297Z,71.81
2023-03-06T13:41:45.733Z,71.53
2023-03-06T13:44:51.102Z,70.96
2023-03-06T13:48:06.408Z,70.58
2023-03-06T13:50:41.558Z,70.24
2023-03-06T13:53:43.106Z,70.73
2023-03-06T13:56:38.568Z,71.39
2023-03-06T13:59:26.399Z,70.75
2023-03-06T14:02:03.822Z,72.07
2023-03-06T14:04:38.679Z,72.86
2023-03-06T14:07:22.575Z,71.39
2023-03-06T14:10:00.203Z,72.68
2023-03-06T14:12:33.056Z,73.81
2023-03-06T14:15:12.510Z,74.87
2023-03-06T14:17:50.004Z,76.08
2023-03-06T14:20:20.169Z,76.59
2023-03-06T14:22:49.918Z,76.67
2023-03-06T14:25:31.541Z,75.54
2023-03-06T14:28:13.745Z,76.05
2023-03-06T14:30:54.346Z,77.46
2023-03-06T14:33:31.043Z,76.02
2023-03-06T14:36:02.760Z,77.54
2023-03-06T14:38:34.191Z,77.88
2023-03-06T14:41:03.134Z,83.12
2023-03-06T14:43:32.526Z,82.16
2023-03-06T14:46:04.306Z,83.30
2023-03-06T14:48:41.955Z,83.28
2023-03-06T14:51:17.687Z,83.83
2023-03-06T14:53:48.367Z,84.91
2023-03-06T14:56:19.756Z,82.81
2023-03-06T14:58:53.946Z,83.22
2023-03-06T15:01:32.661Z,83.78
2023-03-06T15:04:02.111Z,85.41
2023-03-06T15:06:34.581Z,85.76
2023-03-06T15:09:07.829Z,86.71
2023-03-06T15:11:53.873Z,88.30
2023-03-06T15:14:28.747Z,88.70
2023-03-06T15:17:16.612Z,89.18
2023-03-06T15:19:45.581Z,90.45
2023-03-06T15:22:26.937Z,92.67
2023-03-06T15:24:57.381Z,90.51
2023-03-06T15:27:31.157Z,93.07
2023-03-06T15:30:12.841Z,89.71
2023-03-06T15:32:43.346Z,89.66
2023-03-06T15:35:29.097Z,90.99
2023-03-06T15:37:59.641Z,90.91
2023-03-06T15:40:29.932Z,94.69
2023-03-06T15:42:58.621Z,94.18
2023-03-06T15:45:28.309Z,95.39
2023-03-06T15:47:58.516Z,96.05
2023-03-06T15:50:29.541Z,96.69
2023-03-06T15:52:58.380Z,98.61
2023-03-06T15:55:27.821Z,98.91
2023-03-06T15:57:59.923Z,99.47
2023-03-06T16:00:29.928Z,100.00
2023-03-06T16:03:10.414Z,100.00
2023-03-06T16:05:39.454Z,100.00
2023-03-06T16:08:09.609Z,100.00
2023-03-06T16:10:40.211Z,100.00
2023-03-06T16:13:12.703Z,100.00
2023-03-06T16:15:42.827Z,100.00
2023-03-06T16:18:15.112Z,100.00
2023-03-06T16:20:45.334Z,100.00
2023-03-06T16:23:15.348Z,100.00
2023-03-06T16:25:48.359Z,100.00
2023-03-06T16:28:17.785Z,100.00
2023-03-06T16:30:46.893Z,100.00
2023-03-06T16:33:16.783Z,100.00
2023-03-06T16:35:47.393Z,100.00
2023-03-06T16:38:16.893Z,100.00
2023-03-06T16:40:45.821Z,100.00
2023-03-06T16:43:18.487Z,100.00
2023-03-06T16:45:48.560Z,100.00
2023-03-06T16:48:19.427Z,100.00
2023-03-06T16:50:48.491Z,100.00
2023-03-06T16:53:17.688Z,100.00
2023-03-06T16:55:46.786Z,100.00
2023-03-06T16:58:16.382Z,100.00
2023-03-06T17:00:45.457Z,100.00
2023-03-06T17:03:14.570Z,100.00
2023-03-06T17:05:45.365Z,100.00
2023-03-06T17:08:14.792Z,100.00
2023-03-06T17:10:43.746Z,100.00
2023-03-06T17:13:12.602Z,100.00
2023-03-06T17:15:41.851Z,100.00
2023-03-06T17:18:11.590Z,100.00
2023-03-06T17:20:40.892Z,100.00
2023-03-06T17:23:10.892Z,100.00
2023-03-06T17:25:41.108Z,100.00
2023-03-06T17:28:12.826Z,100.00
2023-03-06T17:30:42.015Z,100.00
2023-03-06T17:33:13.261Z,100.00
2023-03-06T17:35:41.881Z,100.00
2023-03-06T17:38:12.808Z,100.00
2023-03-06T17:40:44.325Z,100.00
2023-03-06T17:43:13.675Z,100.00
2023-03-06T17:45:42.769Z,100.00
2023-03-06T17:48:14.006Z,100.00
2023-03-06T17:50:48.574Z,100.00
2023-03-06T17:53:20.852Z,100.00
2023-03-06T17:55:50.115Z,100.00
2023-03-06T17:58:20.101Z,100.00
2023-03-06T18:00:53.483Z,100.00
2023-03-06T18:03:25.110Z,100.00
2023-03-06T18:06:01.215Z,100.00
2023-03-06T18:08:32.307Z,100.00
2023-03-06T18:11:04.637Z,100.00
2023-03-06T18:13:36.987Z,100.00
2023-03-06T18:16:07.194Z,100.00
2023-03-06T18:18:37.625Z,100.00
2023-03-06T18:21:07.522Z,100.00
2023-03-06T18:23:40.007Z,100.00
2023-03-06T18:26:12.556Z,100.00
2023-03-06T18:28:44.873Z,100.00
2023-03-06T18:31:18.622Z,100.00
2023-03-06T18:33:50.571Z,100.00
2023-03-06T18:36:21.184Z,100.00
2023-03-06T18:38:52.844Z,100.00
2023-03-06T18:41:23.169Z,100.00
2023-03-06T18:43:56.429Z,100.00
2023-03-06T18:46:27.632Z,100.00
2023-03-06T18:48:58.395Z,100.00
2023-03-06T18:51:29.722Z,100.00
2023-03-06T18:54:02.565Z,100.00
2023-03-06T18:56:33.368Z,100.00
2023-03-06T18:59:05.586Z,100.00
2023-03-06T19:01:36.207Z,100.00
2023-03-06T19:04:06.749Z,100.00
2023-03-06T19:06:35.815Z,100.00
2023-03-06T19:09:11.573Z,100.00
2023-03-06T19:11:43.307Z,100.00
2023-03-06T19:14:13.475Z,100.00
2023-03-06T19:16:42.665Z,100.00
2023-03-06T19:19:12.546Z,100.00
2023-03-06T19:21:42.600Z,100.00
2023-03-06T19:24:14.770Z,100.00
2023-03-06T19:26:44.554Z,100.00
2023-03-06T19:29:15.559Z,100.00
2023-03-06T19:31:48.284Z,100.00
2023-03-06T19:34:18.400Z,100.00
2023-03-06T19:36:48.133Z,100.00
2023-03-06T19:39:19.652Z,100.00
2023-03-06T19:41:54.276Z,100.00
2023-03-06T19:44:25.774Z,100.00
2023-03-06T19:46:56.592Z,100.00
2023-03-06T19:49:26.866Z,100.00
2023-03-06T19:51:57.044Z,100.00
2023-03-06T19:54:30.829Z,100.00
2023-03-06T19:57:03.706Z,100.00
2023-03-06T19:59:33.543Z,100.00
2023-03-06T20:02:05.308Z,100.00
2023-03-06T20:04:36.649Z,100.00
2023-03-06T20:07:07.865Z,100.00
2023-03-06T20:09:39.882Z,100.00
2023-03-06T20:12:09.866Z,100.00
2023-03-06T20:14:39.968Z,100.00
2023-03-06T20:17:11.402Z,100.00
2023-03-06T20:19:43.137Z,100.00
2023-03-06T20:22:16.525Z,100.00
2023-03-06T20:24:50.065Z,100.00
2023-03-06T20:27:20.259Z,100.00
2023-03-06T20:29:50.177Z,100.00
2023-03-06T20:32:20.192Z,100.00
2023-03-06T20:34:50.077Z,100.00
2023-03-06T20:37:21.917Z,100.00
2023-03-06T20:39:53.995Z,100.00
2023-03-06T20:42:24.055Z,100.00
2023-03-06T20:44:53.863Z,100.00
2023-03-06T20:47:25.965Z,100.00
2023-03-06T20:49:57.038Z,100.00
2023-03-06T20:52:26.394Z,100.00
2023-03-06T20:54:57.376Z,100.00
2023-03-06T20:57:26.694Z,100.00
2023-03-06T20:59:57.216Z,100.00
2023-03-06T21:02:27.051Z,100.00
2023-03-06T21:04:56.174Z,100.00
2023-03-06T21:07:29.860Z,100.00
2023-03-06T21:10:00.954Z,100.00
2023-03-06T21:12:30.144Z,100.00
2023-03-06T21:14:59.140Z,100.00
2023-03-06T21:17:33.863Z,100.00
2023-03-06T21:20:02.410Z,100.00
2023-03-06T21:22:31.564Z,100.00
2023-03-06T21:25:04.900Z,100.00
2023-03-06T21:27:35.008Z,100.00
2023-03-06T21:30:07.112Z,100.00
2023-03-06T21:32:35.751Z,100.00
2023-03-06T21:35:04.127Z,100.00
2023-03-06T21:37:32.998Z,100.00
2023-03-06T21:40:06.581Z,100.00
2023-03-06T21:42:36.758Z,100.00
2023-03-06T21:45:05.596Z,100.00
2023-03-06T21:47:38.871Z,100.00
2023-03-06T21:50:09.820Z,100.00
2023-03-06T21:52:38.390Z,100.00
2023-03-06T21:55:10.251Z,100.00
2023-03-06T21:57:38.769Z,100.00
2023-03-06T22:00:09.168Z,100.00
2023-03-06T22:02:38.858Z,100.00
2023-03-06T22:05:07.449Z,100.00
2023-03-06T22:07:37.778Z,100.00
2023-03-06T22:10:09.616Z,100.00
2023-03-06T22:12:38.054Z,100.00
2023-03-06T22:15:07.415Z,100.00
2023-03-06T22:17:35.753Z,100.00
2023-03-06T22:20:04.529Z,100.00
2023-03-06T22:22:33.064Z,100.00
2023-03-06T22:25:01.317Z,100.00
2023-03-06T22:27:31.771Z,100.00
2023-03-06T22:30:00.133Z,100.00
2023-03-06T22:32:28.448Z,100.00
2023-03-06T22:34:56.861Z,100.00
2023-03-06T22:37:25.509Z,100.00
2023-03-06T22:39:53.807Z,100.00
2023-03-06T22:42:22.082Z,100.00
2023-03-06T22:44:51.735Z,100.00
2023-03-06T22:47:20.025Z,100.00
2023-03-06T22:49:48.355Z,100.00
2023-03-06T22:52:19.606Z,100.00
2023-03-06T22:54:47.898Z,100.00
2023-03-06T22:57:16.173Z,100.00
2023-03-06T22:59:44.579Z,100.00
2023-03-06T23:02:14.298Z,100.00
2023-03-06T23:04:42.613Z,100.00
2023-03-06T23:07:10.942Z,100.00
2023-03-06T23:09:39.283Z,100.00
2023-03-06T23:12:26.021Z,100.00
2023-03-06T23:15:13.391Z,100.00
2023-03-06T23:18:01.501Z,100.00
2023-03-06T23:20:48.479Z,100.00
2023-03-06T23:23:35.424Z,100.00
2023-03-06T23:26:05.355Z,100.00
2023-03-06T23:28:34.930Z,100.00
2023-03-06T23:31:08.015Z,100.00
2023-03-06T23:33:38.889Z,100.00
2023-03-06T23:36:09.558Z,100.00
2023-03-06T23:38:38.297Z,100.00
2023-03-06T23:41:07.972Z,100.00
2023-03-06T23:43:36.564Z,100.00
2023-03-06T23:46:05.264Z,100.00
2023-03-06T23:48:33.735Z,100.00
2023-03-06T23:51:06.551Z,100.00
2023-03-06T23:53:36.594Z,100.00
2023-03-06T23:56:06.362Z,100.00
2023-03-06T23:58:35.040Z,100.00
